Yost Woods, Indiana
Current Conditions -  °F | °C
As of 3:54 PM on Saturday 25 Oct 2014 (Local Time) from KFWA Reporting Station
Few Clouds Few Clouds  
Wind Chill: 69°   Ceiling: Unl
Heat Index: 69°   Visibility: 10mi
Dew Point: 47°   Wind: 18mph
Humidity: 45%   Direction: 280°W
Pressure: 29.88"   Gusts: 26mph
Location:  40.8317°N, 84.9398°W
Report Text: KFWA 251954Z 28016G23KT 10SM FEW250 21/08 A2988 RMK AO2 SLP118 T02060083
Loading
Personal Weather Stations






























Interactive Weather Map
Tropical Storm Tracking
New forecast layout! Learn more

10-Day Weather Forecast

Advertisements
Track Severe Weather on mobile